Time;durP1;ratioP1;P1;durP2;ratioP2;P2;SDS_P1;SDS_P2;PMS_P1;PMS_P2;Temp;Humidity;BMP_temperature;BMP_pressure;BME280_temperature;BME280_humidity;BME280_pressure;Samples;Min_cycle;Max_cycle;Signal;HPM_P1;HPM_P2
2023/07/17 00:01:51;;;;;;;;;;;;;;;25.48;53.81;100869.50;7400394;19;1176;-42
2023/07/17 00:04:22;;;;;;;;;;;;;;;25.45;53.67;100864.44;7397486;19;2154;-42
2023/07/17 00:06:50;;;;;;;;;;;;;;;25.44;53.51;100868.16;7399578;19;1431;-42
2023/07/17 00:09:19;;;;;;;;;;;;;;;25.49;53.02;100871.19;7399057;19;1254;-42
2023/07/17 00:11:47;;;;;;;;;;;;;;;25.51;52.54;100871.88;7398548;19;1822;-42
2023/07/17 00:14:15;;;;;;;;;;;;;;;25.44;54.38;100877.13;7399207;19;1225;-42
2023/07/17 00:16:44;;;;;;;;;;;;;;;25.38;52.87;100878.66;7399275;19;1624;-42
2023/07/17 00:19:12;;;;;;;;;;;;;;;25.45;52.68;100869.88;7398783;19;1860;-42
2023/07/17 00:21:43;;;;;;;;;;;;;;;25.39;53.80;100872.25;7399105;19;1153;-42
2023/07/17 00:24:11;;;;;;;;;;;;;;;25.48;52.94;100866.78;7399592;19;1487;-42
2023/07/17 00:26:40;;;;;;;;;;;;;;;25.48;53.12;100861.38;7398049;19;1243;-42
2023/07/17 00:29:28;;;;;;;;;;;;;;;25.48;53.85;100867.63;7399769;19;1070;-42
2023/07/17 00:31:57;;;;;;;;;;;;;;;25.57;52.66;100871.16;7397055;19;1586;-42
2023/07/17 00:34:25;;;;;;;;;;;;;;;25.56;53.92;100869.44;7399308;19;1285;-42
2023/07/17 00:36:57;;;;;;;;;;;;;;;25.43;53.35;100859.19;7398601;19;1447;-42
2023/07/17 00:39:26;;;;;;;;;;;;;;;25.57;52.20;100857.63;7397379;19;1857;-42
2023/07/17 00:41:54;;;;;;;;;;;;;;;25.58;54.09;100862.81;7398563;19;1534;-42
2023/07/17 00:44:22;;;;;;;;;;;;;;;25.39;52.87;100864.13;7398134;19;1224;-42
2023/07/17 00:46:52;;;;;;;;;;;;;;;25.34;52.70;100847.53;7396939;19;1831;-42
2023/07/17 00:49:21;;;;;;;;;;;;;;;25.43;52.46;100859.19;7398621;19;1291;-42
2023/07/17 00:51:49;;;;;;;;;;;;;;;25.51;52.85;100872.69;7398205;19;1150;-42
2023/07/17 00:54:21;;;;;;;;;;;;;;;25.46;53.15;100849.88;7398983;19;1466;-42
2023/07/17 00:56:49;;;;;;;;;;;;;;;25.46;53.80;100858.00;7398735;19;1286;-42
2023/07/17 00:59:19;;;;;;;;;;;;;;;25.42;54.15;100860.22;7394666;19;1853;-42
2023/07/17 01:01:47;;;;;;;;;;;;;;;25.36;52.49;100850.91;7397254;19;1628;-42
2023/07/17 01:04:16;;;;;;;;;;;;;;;25.36;52.52;100855.50;7397930;19;1542;-42
2023/07/17 01:06:44;;;;;;;;;;;;;;;25.32;52.88;100849.59;7395767;19;1270;-42
2023/07/17 01:09:13;;;;;;;;;;;;;;;25.45;52.56;100856.31;7397702;19;1223;-42
2023/07/17 01:11:44;;;;;;;;;;;;;;;25.52;53.00;100870.81;7397008;19;1220;-42
2023/07/17 01:14:19;;;;;;;;;;;;;;;25.63;52.72;100846.06;7398006;19;1590;-42
2023/07/17 01:16:48;;;;;;;;;;;;;;;25.57;53.26;100865.75;7398194;19;1534;-42
2023/07/17 01:19:16;;;;;;;;;;;;;;;25.65;52.87;100846.75;7396527;19;1835;-42
2023/07/17 01:21:48;;;;;;;;;;;;;;;25.63;54.15;100850.66;7397314;19;1940;-42
2023/07/17 01:24:19;;;;;;;;;;;;;;;25.73;53.42;100862.09;7397693;19;1184;-42
2023/07/17 01:26:48;;;;;;;;;;;;;;;25.54;53.83;100853.38;7397803;19;1490;-42
2023/07/17 01:29:16;;;;;;;;;;;;;;;25.48;53.05;100853.25;7397321;19;1486;-42
2023/07/17 01:31:45;;;;;;;;;;;;;;;25.46;53.27;100858.00;7398048;19;1085;-42
2023/07/17 01:34:13;;;;;;;;;;;;;;;25.60;52.85;100874.34;7396612;19;1922;-42
2023/07/17 01:36:41;;;;;;;;;;;;;;;25.52;53.78;100854.59;7396585;19;1631;-42
2023/07/17 01:39:09;;;;;;;;;;;;;;;25.61;53.41;100858.94;7395973;19;1860;-42
2023/07/17 01:41:40;;;;;;;;;;;;;;;25.62;53.39;100868.75;7396475;19;1754;-42
2023/07/17 01:44:09;;;;;;;;;;;;;;;25.66;53.44;100851.13;7395809;19;1356;-42
2023/07/17 01:46:37;;;;;;;;;;;;;;;25.57;54.12;100852.19;7396403;19;1540;-42
2023/07/17 01:49:07;;;;;;;;;;;;;;;25.45;53.54;100865.28;7397446;19;1315;-42
2023/07/17 01:51:35;;;;;;;;;;;;;;;25.38;52.92;100862.41;7395795;19;1874;-47
2023/07/17 01:54:03;;;;;;;;;;;;;;;25.50;51.87;100867.44;7393604;19;2075;-42
2023/07/17 01:56:32;;;;;;;;;;;;;;;25.58;53.38;100870.13;7397255;19;1099;-42
2023/07/17 01:59:03;;;;;;;;;;;;;;;25.52;52.44;100855.41;7395205;19;1847;-42
2023/07/17 02:01:32;;;;;;;;;;;;;;;25.41;53.08;100861.25;7395655;19;1243;-42
2023/07/17 02:04:01;;;;;;;;;;;;;;;25.58;52.33;100878.25;7396274;19;1612;-42
2023/07/17 02:06:29;;;;;;;;;;;;;;;25.71;52.60;100867.69;7395390;19;1482;-42
2023/07/17 02:08:57;;;;;;;;;;;;;;;25.68;52.75;100867.19;7395846;19;1562;-42
2023/07/17 02:11:29;;;;;;;;;;;;;;;25.70;53.09;100866.00;7397093;19;1454;-42
2023/07/17 02:13:57;;;;;;;;;;;;;;;25.62;53.85;100874.16;7403340;19;1207;-42
2023/07/17 02:16:28;;;;;;;;;;;;;;;25.51;53.58;100855.63;7404303;19;1510;-43
2023/07/17 02:18:56;;;;;;;;;;;;;;;25.41;52.70;100869.38;7403451;19;1849;-42
2023/07/17 02:21:24;;;;;;;;;;;;;;;25.35;52.73;100861.94;7403422;19;1217;-42
2023/07/17 02:23:53;;;;;;;;;;;;;;;25.31;52.66;100871.44;7403750;19;1281;-42
2023/07/17 02:26:21;;;;;;;;;;;;;;;25.27;52.82;100865.53;7403577;19;1038;-42
2023/07/17 02:28:49;;;;;;;;;;;;;;;25.44;52.46;100869.00;7402698;19;1460;-42
2023/07/17 02:31:17;;;;;;;;;;;;;;;25.47;52.63;100870.53;7401858;19;1544;-42
2023/07/17 02:33:48;;;;;;;;;;;;;;;25.37;52.74;100866.16;7399272;19;1207;-42
2023/07/17 02:36:17;;;;;;;;;;;;;;;25.50;52.45;100864.75;7402844;19;1205;-42
2023/07/17 02:38:45;;;;;;;;;;;;;;;25.66;52.16;100870.06;7402197;19;1866;-42
2023/07/17 02:41:13;;;;;;;;;;;;;;;25.51;52.84;100866.44;7402555;19;1189;-42
2023/07/17 02:43:42;;;;;;;;;;;;;;;25.39;52.56;100885.78;7402098;19;1425;-42
2023/07/17 02:46:10;;;;;;;;;;;;;;;25.36;52.73;100880.69;7401863;19;1670;-42
2023/07/17 02:48:38;;;;;;;;;;;;;;;25.33;52.71;100881.06;7402877;19;1107;-42
2023/07/17 02:51:09;;;;;;;;;;;;;;;25.34;52.62;100876.50;7402516;19;1172;-42
2023/07/17 02:53:37;;;;;;;;;;;;;;;25.34;52.92;100881.91;7402908;19;1239;-42
2023/07/17 02:56:07;;;;;;;;;;;;;;;25.24;52.75;100876.69;7401753;19;1490;-42
2023/07/17 02:58:36;;;;;;;;;;;;;;;25.22;52.71;100872.47;7401963;19;1849;-42
2023/07/17 03:01:04;;;;;;;;;;;;;;;25.28;52.87;100875.31;7402055;19;1573;-42
2023/07/17 03:03:32;;;;;;;;;;;;;;;25.25;53.07;100875.69;7401118;19;1222;-42
2023/07/17 03:06:01;;;;;;;;;;;;;;;25.26;53.02;100876.53;7400747;19;1277;-42
2023/07/17 03:08:32;;;;;;;;;;;;;;;25.28;53.13;100880.72;7401678;19;1487;-42
2023/07/17 03:11:03;;;;;;;;;;;;;;;25.35;53.01;100889.84;7401700;19;1154;-42
2023/07/17 03:13:32;;;;;;;;;;;;;;;25.55;52.64;100884.03;7397878;19;1146;-42
2023/07/17 03:16:00;;;;;;;;;;;;;;;25.61;52.93;100899.56;7402368;19;1299;-42
2023/07/17 03:18:29;;;;;;;;;;;;;;;25.61;53.19;100891.44;7401478;19;1849;-42
2023/07/17 03:20:57;;;;;;;;;;;;;;;25.45;53.34;100891.53;7398098;19;1533;-42
2023/07/17 03:23:26;;;;;;;;;;;;;;;25.49;52.91;100892.84;7401077;19;1200;-42
2023/07/17 03:25:58;;;;;;;;;;;;;;;25.52;53.37;100895.19;7400462;19;1279;-42
2023/07/17 03:28:26;;;;;;;;;;;;;;;25.59;53.45;100898.91;7401405;19;1545;-42
2023/07/17 03:30:55;;;;;;;;;;;;;;;25.51;53.76;100902.47;7401437;19;1462;-42
2023/07/17 03:33:23;;;;;;;;;;;;;;;25.39;53.65;100898.47;7397916;19;1857;-42
2023/07/17 03:35:51;;;;;;;;;;;;;;;25.26;53.73;100906.28;7400824;19;1458;-42
2023/07/17 03:38:20;;;;;;;;;;;;;;;25.20;53.59;100902.38;7399470;19;1288;-42
2023/07/17 03:40:48;;;;;;;;;;;;;;;25.45;53.22;100914.03;7397869;19;1841;-42
2023/07/17 03:43:19;;;;;;;;;;;;;;;25.56;53.71;100907.38;7400079;19;1315;-42
2023/07/17 03:45:47;;;;;;;;;;;;;;;25.50;54.23;100906.19;7400698;19;1314;-42
2023/07/17 03:48:16;;;;;;;;;;;;;;;25.33;54.02;100910.84;7401965;19;1245;-42
2023/07/17 03:50:44;;;;;;;;;;;;;;;25.24;54.40;100902.91;7400033;19;1200;-42
2023/07/17 03:53:10;;;;;;;;;;;;;;;25.26;54.19;100895.47;7398654;19;1503;-42
2023/07/17 03:55:38;;;;;;;;;;;;;;;25.29;54.22;100895.97;7396196;19;1545;-42
2023/07/17 03:58:07;;;;;;;;;;;;;;;25.41;54.18;100904.56;7395031;19;1318;-42
2023/07/17 04:00:38;;;;;;;;;;;;;;;25.57;54.29;100903.66;7394493;19;1873;-42
2023/07/17 04:03:06;;;;;;;;;;;;;;;25.63;53.21;100902.09;7395359;19;1159;-42
2023/07/17 04:05:34;;;;;;;;;;;;;;;25.70;55.49;100903.91;7396832;19;1253;-42
2023/07/17 04:08:03;;;;;;;;;;;;;;;25.56;55.82;100918.19;7397114;19;1057;-42
2023/07/17 04:10:31;;;;;;;;;;;;;;;25.44;55.24;100909.59;7397843;19;1205;-42
2023/07/17 04:12:59;;;;;;;;;;;;;;;25.45;54.72;100918.59;7398509;19;1945;-42
2023/07/17 04:15:29;;;;;;;;;;;;;;;25.44;54.95;100914.19;7397906;19;1236;-42
2023/07/17 04:17:59;;;;;;;;;;;;;;;25.42;54.91;100921.63;7398718;19;1558;-42
2023/07/17 04:20:28;;;;;;;;;;;;;;;25.44;54.46;100919.59;7397550;19;1870;-41
2023/07/17 04:22:56;;;;;;;;;;;;;;;25.36;53.80;100917.75;7399472;19;1191;-42
2023/07/17 04:25:24;;;;;;;;;;;;;;;25.36;53.60;100929.44;7398507;19;1643;-42
2023/07/17 04:27:53;;;;;;;;;;;;;;;25.40;53.55;100919.94;7398617;19;1370;-42
2023/07/17 04:30:21;;;;;;;;;;;;;;;25.41;53.56;100915.38;7399040;19;1565;-42
2023/07/17 04:32:50;;;;;;;;;;;;;;;25.43;54.15;100926.88;7397166;19;1161;-42
2023/07/17 04:35:21;;;;;;;;;;;;;;;25.46;53.97;100931.09;7236477;19;13183;-41
2023/07/17 04:37:49;;;;;;;;;;;;;;;25.49;54.14;100923.47;7397551;19;1874;-42
2023/07/17 04:40:17;;;;;;;;;;;;;;;25.50;53.96;100919.72;7397838;19;1863;-41
2023/07/17 04:42:46;;;;;;;;;;;;;;;25.56;53.99;100924.44;7399139;19;1562;-42
2023/07/17 04:45:16;;;;;;;;;;;;;;;25.53;53.87;100927.53;7397776;19;1208;-42
2023/07/17 04:47:44;;;;;;;;;;;;;;;25.57;54.17;100928.03;7398218;19;1241;-42
2023/07/17 04:50:13;;;;;;;;;;;;;;;25.59;54.43;100923.28;7396614;19;1844;-42
2023/07/17 04:52:43;;;;;;;;;;;;;;;25.59;53.97;100934.09;7398378;19;1237;-42
2023/07/17 04:55:12;;;;;;;;;;;;;;;25.58;54.44;100924.28;7397054;19;1548;-42
2023/07/17 07:10:59;;;;;;;;;;;;;;;25.15;66.94;100915.59;7417034;19;1433;-78
2023/07/17 07:13:27;;;;;;;;;;;;;;;24.96;65.96;100966.34;7430742;19;1550;-69
2023/07/17 07:15:56;;;;;;;;;;;;;;;24.71;65.63;100968.22;7430670;19;1839;-67
2023/07/17 07:18:24;;;;;;;;;;;;;;;24.49;64.91;100966.13;7430734;19;1609;-68
2023/07/17 07:20:53;;;;;;;;;;;;;;;24.49;64.40;100969.69;7424502;19;1159;-69
2023/07/17 07:23:21;;;;;;;;;;;;;;;24.69;63.66;100962.13;7429225;19;1500;-69
2023/07/17 07:25:50;;;;;;;;;;;;;;;24.64;63.97;100966.34;7425893;19;1236;-70
2023/07/17 07:28:21;;;;;;;;;;;;;;;24.59;64.31;100965.00;7429017;19;1181;-68
2023/07/17 07:30:50;;;;;;;;;;;;;;;24.53;65.03;100959.41;7425193;19;1892;-69
2023/07/17 07:33:18;;;;;;;;;;;;;;;24.50;65.69;100966.00;7427635;19;1396;-69
2023/07/17 07:35:47;;;;;;;;;;;;;;;24.56;65.38;100969.91;7428160;19;1490;-69
2023/07/17 07:38:15;;;;;;;;;;;;;;;24.43;65.45;100970.34;7430257;19;1039;-66
2023/07/17 07:40:43;;;;;;;;;;;;;;;24.46;66.06;100963.78;7427571;19;1294;-70
2023/07/17 07:43:11;;;;;;;;;;;;;;;24.40;65.64;100978.78;7427496;19;1178;-72
2023/07/17 07:45:42;;;;;;;;;;;;;;;24.49;65.01;100968.84;7426709;19;1556;-76
2023/07/17 07:48:11;;;;;;;;;;;;;;;24.19;65.93;100963.91;7427398;19;1195;-69
2023/07/17 07:50:39;;;;;;;;;;;;;;;24.38;65.38;100956.50;7425478;19;1860;-70
2023/07/17 07:53:07;;;;;;;;;;;;;;;24.29;64.17;100952.94;7427061;19;1179;-70
2023/07/17 07:55:35;;;;;;;;;;;;;;;24.16;64.80;100960.69;7433875;19;1144;-71
2023/07/17 07:58:04;;;;;;;;;;;;;;;24.41;64.01;100965.13;7434002;19;1490;-64
2023/07/17 08:00:32;;;;;;;;;;;;;;;24.37;63.36;100954.78;7422909;19;1498;-70
2023/07/17 08:03:03;;;;;;;;;;;;;;;24.19;64.11;100957.63;7423854;19;1446;-70
2023/07/17 08:05:31;;;;;;;;;;;;;;;24.46;63.02;100959.22;7422591;19;1383;-69
2023/07/17 08:07:59;;;;;;;;;;;;;;;24.43;62.58;100954.13;7425457;19;1443;-69
2023/07/17 08:10:28;;;;;;;;;;;;;;;24.28;63.06;100962.06;7421821;19;1873;-69
2023/07/17 08:12:57;;;;;;;;;;;;;;;24.22;63.15;100958.16;7424596;19;1435;-69
2023/07/17 08:15:25;;;;;;;;;;;;;;;24.12;63.55;100952.03;7424929;19;1514;-69
2023/07/17 08:17:54;;;;;;;;;;;;;;;24.02;63.79;100954.06;7424821;19;1460;-71
2023/07/17 08:20:24;;;;;;;;;;;;;;;24.07;63.84;100951.69;7417117;19;1696;-69
2023/07/17 08:22:55;;;;;;;;;;;;;;;24.12;63.82;100957.44;7396475;19;1368;-71
2023/07/17 08:25:23;;;;;;;;;;;;;;;24.47;62.74;100949.22;7393560;19;1499;-69
2023/07/17 08:27:52;;;;;;;;;;;;;;;24.85;61.88;100953.19;7395524;19;1244;-70
2023/07/17 08:30:20;;;;;;;;;;;;;;;25.18;61.25;100947.72;7393730;19;1834;-72
2023/07/17 08:32:48;;;;;;;;;;;;;;;25.39;60.98;100933.66;7397924;19;1408;-69
2023/07/17 08:35:17;;;;;;;;;;;;;;;25.45;61.11;100937.56;7397411;19;1155;-64
2023/07/17 08:37:48;;;;;;;;;;;;;;;25.06;57.86;100933.69;7398182;19;1486;-74
2023/07/17 08:40:16;;;;;;;;;;;;;;;25.12;58.62;100937.59;7397440;19;1342;-75
2023/07/17 08:42:46;;;;;;;;;;;;;;;25.18;60.07;100947.72;7397642;19;1446;-75
2023/07/17 08:45:15;;;;;;;;;;;;;;;25.29;60.31;100928.44;7395960;19;1296;-70
2023/07/17 08:47:43;;;;;;;;;;;;;;;25.43;60.97;100921.47;7398525;19;1441;-75
2023/07/17 08:50:12;;;;;;;;;;;;;;;25.26;60.59;100928.78;7397569;19;1867;-74
2023/07/17 08:52:41;;;;;;;;;;;;;;;25.23;60.30;100934.56;7396920;19;1382;-74
2023/07/17 08:55:12;;;;;;;;;;;;;;;25.22;61.28;100926.59;7398187;19;1268;-75
2023/07/17 08:57:41;;;;;;;;;;;;;;;25.31;61.48;100912.88;7402717;19;1454;-77
2023/07/17 09:00:15;;;;;;;;;;;;;;;25.43;61.28;100923.31;7403838;19;1324;-68
2023/07/17 09:02:43;;;;;;;;;;;;;;;25.25;60.77;100919.00;7394177;19;1324;-68
2023/07/17 09:05:12;;;;;;;;;;;;;;;25.30;61.41;100919.28;7395619;19;1404;-75
2023/07/17 09:07:40;;;;;;;;;;;;;;;25.51;61.40;100910.59;7395408;19;1408;-73
2023/07/17 09:10:21;;;;;;;;;;;;;;;25.69;60.47;100899.53;7391705;19;1856;-63
2023/07/17 09:12:51;;;;;;;;;;;;;;;25.74;60.93;100899.81;7396472;19;1642;-63
2023/07/17 09:15:20;;;;;;;;;;;;;;;25.66;61.84;100897.16;7394654;19;1476;-70
2023/07/17 09:17:48;;;;;;;;;;;;;;;25.34;56.46;100893.56;7394208;19;1437;-71
2023/07/17 09:20:18;;;;;;;;;;;;;;;25.45;59.14;100895.06;7396683;19;1339;-71
2023/07/17 09:22:46;;;;;;;;;;;;;;;25.64;58.94;100882.13;7395020;19;1428;-71
2023/07/17 09:25:15;;;;;;;;;;;;;;;25.71;60.06;100900.19;7396116;19;1268;-72
2023/07/17 09:27:50;;;;;;;;;;;;;;;25.73;60.15;100887.31;7396620;19;1125;-71
2023/07/17 09:30:19;;;;;;;;;;;;;;;25.76;60.25;100892.34;7394709;19;1853;-72
2023/07/17 09:32:48;;;;;;;;;;;;;;;25.75;59.92;100885.28;7393013;19;1455;-70
2023/07/17 09:35:19;;;;;;;;;;;;;;;25.79;60.41;100889.31;7395513;19;1308;-71
2023/07/17 09:37:48;;;;;;;;;;;;;;;25.83;60.21;100886.25;7395851;19;1149;-71
2023/07/17 09:40:19;;;;;;;;;;;;;;;25.80;60.49;100882.88;7394299;19;1684;-71
2023/07/17 09:42:54;;;;;;;;;;;;;;;25.82;60.67;100884.56;7395020;19;1390;-72
2023/07/17 09:45:22;;;;;;;;;;;;;;;25.81;61.06;100883.72;7395053;19;1347;-71
2023/07/17 09:47:51;;;;;;;;;;;;;;;25.79;60.81;100886.59;7394010;19;1197;-70
2023/07/17 09:50:22;;;;;;;;;;;;;;;25.87;60.94;100887.59;7394147;19;1849;-70
2023/07/17 09:52:51;;;;;;;;;;;;;;;25.83;60.84;100886.25;7394567;19;1506;-70
2023/07/17 09:55:21;;;;;;;;;;;;;;;25.71;61.73;100873.09;7395078;19;1331;-70
2023/07/17 09:57:53;;;;;;;;;;;;;;;25.79;61.66;100874.94;7394963;19;1609;-70
2023/07/17 10:00:22;;;;;;;;;;;;;;;25.84;61.53;100861.69;7394510;19;1495;-70
2023/07/17 10:02:55;;;;;;;;;;;;;;;25.78;61.40;100852.44;7394063;19;1272;-69
2023/07/17 10:05:23;;;;;;;;;;;;;;;25.76;61.70;100867.97;7393388;19;1587;-70
2023/07/17 10:07:53;;;;;;;;;;;;;;;25.78;61.69;100863.25;7393140;19;1403;-70
2023/07/17 10:10:22;;;;;;;;;;;;;;;25.79;61.84;100864.94;7391793;19;1843;-70
2023/07/17 10:12:53;;;;;;;;;;;;;;;25.77;62.00;100856.13;7394485;19;1466;-70
2023/07/17 10:15:22;;;;;;;;;;;;;;;25.85;61.82;100876.94;7393079;19;1539;-69
2023/07/17 10:17:56;;;;;;;;;;;;;;;25.67;62.09;100866.34;7393013;19;1360;-69
2023/07/17 10:20:25;;;;;;;;;;;;;;;25.67;62.37;100852.81;7394792;19;1589;-69
2023/07/17 10:22:54;;;;;;;;;;;;;;;25.69;62.34;100853.47;6951018;19;9999678;-67
2023/07/17 10:25:27;;;;;;;;;;;;;;;25.12;64.72;100857.25;7386379;19;1618;-68
2023/07/17 10:28:01;;;;;;;;;;;;;;;24.78;63.08;100858.34;7388835;19;1460;-69
2023/07/17 10:30:31;;;;;;;;;;;;;;;24.47;61.50;100858.19;7388327;19;1885;-69
2023/07/17 10:33:13;;;;;;;;;;;;;;;24.32;61.62;100849.06;7385078;19;1491;-70
2023/07/17 10:35:49;;;;;;;;;;;;;;;24.30;61.81;100838.41;7386527;19;1491;-70
2023/07/17 10:38:18;;;;;;;;;;;;;;;24.39;61.29;100839.25;7386212;19;1428;-68
2023/07/17 10:40:47;;;;;;;;;;;;;;;24.48;61.19;100843.63;7389176;19;1483;-69
2023/07/17 10:43:19;;;;;;;;;;;;;;;24.54;60.92;100836.75;7386548;19;1428;-69
2023/07/17 10:45:48;;;;;;;;;;;;;;;24.47;61.29;100825.75;7389835;19;1522;-69
2023/07/17 10:48:18;;;;;;;;;;;;;;;24.27;61.93;100829.78;7387240;19;1368;-69
2023/07/17 10:50:50;;;;;;;;;;;;;;;24.42;61.37;100828.94;7387871;19;1855;-69
2023/07/17 10:53:19;;;;;;;;;;;;;;;24.41;61.02;100831.81;7388421;19;1432;-69
2023/07/17 10:55:49;;;;;;;;;;;;;;;24.49;61.18;100820.16;7388736;19;1341;-70
2023/07/17 10:58:20;;;;;;;;;;;;;;;24.42;61.04;100820.84;7386759;19;1947;-70
2023/07/17 11:00:49;;;;;;;;;;;;;;;24.31;61.81;100836.53;7386122;19;1367;-70
2023/07/17 11:03:18;;;;;;;;;;;;;;;24.27;61.43;100829.78;7384528;19;1514;-70
2023/07/17 11:05:47;;;;;;;;;;;;;;;24.35;61.23;100843.28;7386290;19;1432;-70
2023/07/17 11:08:15;;;;;;;;;;;;;;;24.43;61.05;100824.38;7386342;19;1447;-69
2023/07/17 11:10:45;;;;;;;;;;;;;;;24.35;60.97;100827.94;7384016;19;1860;-70
2023/07/17 11:13:14;;;;;;;;;;;;;;;24.30;60.89;100824.06;7387748;19;1502;-70
2023/07/17 11:15:45;;;;;;;;;;;;;;;24.38;60.41;100848.38;7386309;19;1456;-68
2023/07/17 11:18:13;;;;;;;;;;;;;;;24.30;60.61;100834.88;7385988;19;1896;-69
2023/07/17 11:20:41;;;;;;;;;;;;;;;24.34;60.59;100833.50;7385061;19;1566;-69
2023/07/17 11:23:12;;;;;;;;;;;;;;;24.31;60.39;100823.03;7384684;19;2245;-69
2023/07/17 11:25:41;;;;;;;;;;;;;;;24.25;60.18;100827.25;7386161;19;1185;-69
2023/07/17 11:28:09;;;;;;;;;;;;;;;24.28;60.15;100820.69;7385144;19;1490;-70
2023/07/17 11:30:37;;;;;;;;;;;;;;;24.26;60.22;100828.94;7382280;19;1850;-70
2023/07/17 11:33:10;;;;;;;;;;;;;;;24.32;59.89;100832.84;7384799;19;1431;-70
2023/07/17 11:35:42;;;;;;;;;;;;;;;24.29;59.83;100816.94;7385402;19;1593;-69
2023/07/17 11:38:11;;;;;;;;;;;;;;;24.21;59.88;100821.34;7386348;19;1562;-70
2023/07/17 11:40:52;;;;;;;;;;;;;;;24.22;60.09;100817.63;7385024;19;1360;-70
2023/07/17 11:43:25;;;;;;;;;;;;;;;24.18;60.23;100821.69;7385683;19;1373;-70
2023/07/17 11:45:55;;;;;;;;;;;;;;;24.22;59.98;100814.94;7386015;19;1480;-70
2023/07/17 11:48:27;;;;;;;;;;;;;;;24.10;60.09;100815.44;7382626;19;1466;-70
2023/07/17 11:50:56;;;;;;;;;;;;;;;24.13;60.04;100813.25;7385887;19;1830;-70
2023/07/17 11:53:26;;;;;;;;;;;;;;;24.09;60.98;100821.84;7390148;19;1451;-71
2023/07/17 11:55:55;;;;;;;;;;;;;;;24.19;60.36;100823.38;7392066;19;1161;-71
2023/07/17 11:58:24;;;;;;;;;;;;;;;24.28;60.16;100807.16;7397112;19;1546;-71
2023/07/17 12:00:53;;;;;;;;;;;;;;;24.17;60.11;100803.81;7398173;19;1435;-72
2023/07/17 12:03:22;;;;;;;;;;;;;;;24.28;59.78;100807.16;7397998;19;1350;-71
2023/07/17 12:05:53;;;;;;;;;;;;;;;24.26;60.08;100782.19;7397827;19;1574;-70
2023/07/17 12:08:21;;;;;;;;;;;;;;;24.21;60.04;100805.16;7398414;19;1225;-71
2023/07/17 12:10:50;;;;;;;;;;;;;;;24.16;60.38;100796.69;7390758;19;1838;-69
2023/07/17 12:13:18;;;;;;;;;;;;;;;24.08;61.05;100783.19;7398150;19;1490;-77
2023/07/17 12:15:46;;;;;;;;;;;;;;;24.02;61.50;100794.66;7395451;19;1165;-69
2023/07/17 12:18:15;;;;;;;;;;;;;;;24.06;61.18;100782.50;7397674;19;1502;-75
2023/07/17 12:20:44;;;;;;;;;;;;;;;24.02;61.61;100786.56;7397173;19;1511;-74
2023/07/17 12:23:15;;;;;;;;;;;;;;;24.04;61.49;100776.44;7398041;19;1603;-69
2023/07/17 12:25:45;;;;;;;;;;;;;;;23.95;61.84;100772.03;7398365;19;1115;-70
2023/07/17 12:28:14;;;;;;;;;;;;;;;24.13;61.34;100774.56;7397263;19;1535;-71
2023/07/17 12:30:42;;;;;;;;;;;;;;;24.32;60.77;100758.00;7395460;19;1821;-71
2023/07/17 12:33:10;;;;;;;;;;;;;;;24.29;60.69;100773.72;7397206;19;1284;-73
2023/07/17 12:35:40;;;;;;;;;;;;;;;24.30;60.59;100751.09;7396608;19;1078;-71
2023/07/17 12:38:08;;;;;;;;;;;;;;;24.33;60.43;100765.13;7396902;19;1443;-72
2023/07/17 12:40:39;;;;;;;;;;;;;;;24.29;60.48;100746.69;7395279;19;1459;-68
2023/07/17 12:43:08;;;;;;;;;;;;;;;24.20;60.85;100753.97;7396719;19;1499;-69
2023/07/17 12:45:36;;;;;;;;;;;;;;;24.30;60.70;100756.50;7395827;19;1118;-72
2023/07/17 12:48:06;;;;;;;;;;;;;;;24.35;60.64;100746.88;7396389;19;1618;-76
2023/07/17 12:50:35;;;;;;;;;;;;;;;24.34;60.24;100752.44;7396948;19;1850;-75
2023/07/17 12:53:03;;;;;;;;;;;;;;;24.33;60.31;100735.38;7396452;19;1519;-72
2023/07/17 12:55:31;;;;;;;;;;;;;;;24.37;60.21;100733.16;7396599;19;1266;-72
2023/07/17 12:58:02;;;;;;;;;;;;;;;24.40;59.94;100749.03;7393588;19;1382;-72
2023/07/17 13:00:31;;;;;;;;;;;;;;;24.32;60.16;100766.13;7397607;19;1517;-70
2023/07/17 13:02:59;;;;;;;;;;;;;;;24.28;59.87;100735.03;7396942;19;1428;-72
2023/07/17 13:05:27;;;;;;;;;;;;;;;24.33;59.87;100734.53;7395856;19;1241;-71
2023/07/17 13:07:55;;;;;;;;;;;;;;;24.20;60.22;100741.31;7396693;19;1134;-71
2023/07/17 13:10:24;;;;;;;;;;;;;;;24.28;60.09;100723.41;7392501;19;1280;-70
2023/07/17 13:12:52;;;;;;;;;;;;;;;24.33;59.88;100738.09;7396049;19;1237;-73
2023/07/17 13:15:23;;;;;;;;;;;;;;;24.33;59.68;100748.03;7394894;19;1482;-71
2023/07/17 13:17:51;;;;;;;;;;;;;;;24.30;59.88;100754.63;7395503;19;1554;-74
2023/07/17 13:20:19;;;;;;;;;;;;;;;24.21;60.25;100724.09;7395087;19;1565;-65
2023/07/17 13:22:48;;;;;;;;;;;;;;;24.38;59.97;100732.16;7394302;19;1499;-67
2023/07/17 13:25:16;;;;;;;;;;;;;;;24.38;62.92;100737.56;7393980;19;1260;-65
2023/07/17 13:27:46;;;;;;;;;;;;;;;24.52;62.54;100739.59;7395149;19;1428;-68
2023/07/17 13:30:15;;;;;;;;;;;;;;;24.49;61.89;100737.22;7395713;19;1464;-75
2023/07/17 13:32:46;;;;;;;;;;;;;;;24.41;61.67;100729.09;7393303;19;1850;-71
2023/07/17 13:35:14;;;;;;;;;;;;;;;24.38;61.24;100735.69;7395950;19;1435;-60
2023/07/17 13:37:42;;;;;;;;;;;;;;;24.36;61.56;100750.41;7395460;19;1420;-65
2023/07/17 13:40:11;;;;;;;;;;;;;;;24.30;60.79;100732.19;7393822;19;1296;-59
2023/07/17 13:42:39;;;;;;;;;;;;;;;24.45;61.35;100730.44;7394923;19;1301;-67
2023/07/17 13:45:08;;;;;;;;;;;;;;;24.42;59.51;100725.38;7395252;19;1182;-59
2023/07/17 13:47:36;;;;;;;;;;;;;;;24.36;60.18;100731.50;7394660;19;1526;-62
2023/07/17 13:50:09;;;;;;;;;;;;;;;24.32;59.47;100722.03;7392826;19;1502;-68
2023/07/17 13:52:37;;;;;;;;;;;;;;;24.31;58.89;100718.50;7392051;19;1885;-60
2023/07/17 13:55:06;;;;;;;;;;;;;;;24.20;58.50;100718.84;7395970;19;1052;-65
2023/07/17 13:57:35;;;;;;;;;;;;;;;24.30;58.52;100716.78;7393698;19;1522;-66
2023/07/17 14:00:03;;;;;;;;;;;;;;;24.44;59.39;100727.94;7393941;19;1455;-70
2023/07/17 14:02:31;;;;;;;;;;;;;;;24.47;60.06;100714.91;7393997;19;1569;-69
2023/07/17 14:04:59;;;;;;;;;;;;;;;24.55;60.23;100698.69;7391998;19;1542;-72
2023/07/17 14:07:30;;;;;;;;;;;;;;;24.46;60.68;100712.38;7393511;19;1189;-70
2023/07/17 14:09:59;;;;;;;;;;;;;;;24.31;60.19;100706.81;7392006;19;1123;-69
2023/07/17 14:12:27;;;;;;;;;;;;;;;24.20;60.29;100695.38;7392888;19;1853;-65
2023/07/17 14:14:55;;;;;;;;;;;;;;;24.14;60.29;100698.75;7393362;19;1260;-64
2023/07/17 14:17:24;;;;;;;;;;;;;;;24.16;60.32;100695.88;7394574;19;1472;-65
2023/07/17 14:19:52;;;;;;;;;;;;;;;24.17;60.30;100684.91;7391448;19;1577;-67
2023/07/17 14:22:20;;;;;;;;;;;;;;;24.11;60.58;100696.38;7393587;19;1598;-60
2023/07/17 14:24:51;;;;;;;;;;;;;;;24.21;60.67;100709.72;7394660;19;1213;-58
2023/07/17 14:27:19;;;;;;;;;;;;;;;24.04;61.35;100699.97;7393873;19;1609;-64
2023/07/17 14:29:48;;;;;;;;;;;;;;;23.86;61.95;100686.63;7391825;19;1212;-61
2023/07/17 14:32:16;;;;;;;;;;;;;;;23.97;61.82;100697.06;7390934;19;1900;-60
2023/07/17 14:34:45;;;;;;;;;;;;;;;24.08;61.66;100674.28;7393999;19;1575;-72
2023/07/17 14:37:13;;;;;;;;;;;;;;;23.98;61.88;100672.59;7394169;19;1507;-65
2023/07/17 14:39:41;;;;;;;;;;;;;;;24.02;61.36;100679.34;7392173;19;1121;-62
2023/07/17 14:42:12;;;;;;;;;;;;;;;24.03;61.57;100682.88;7392799;19;1955;-69
2023/07/17 14:44:40;;;;;;;;;;;;;;;24.11;61.54;100669.38;7392545;19;1392;-63
2023/07/17 14:47:08;;;;;;;;;;;;;;;24.19;61.51;100671.22;7392554;19;1201;-63
2023/07/17 14:49:37;;;;;;;;;;;;;;;24.22;61.47;100687.09;7392151;19;1463;-72
2023/07/17 14:52:06;;;;;;;;;;;;;;;24.16;61.60;100696.72;7391008;19;1834;-68
2023/07/17 14:54:34;;;;;;;;;;;;;;;24.22;61.25;100660.91;7387620;19;1403;-63
2023/07/17 14:57:02;;;;;;;;;;;;;;;24.22;61.23;100654.66;7392423;19;1574;-81
2023/07/17 14:59:33;;;;;;;;;;;;;;;24.24;61.05;100657.22;7395254;19;1415;-74
2023/07/17 15:02:01;;;;;;;;;;;;;;;24.26;61.11;100660.56;7392420;19;1581;-79
2023/07/17 15:04:29;;;;;;;;;;;;;;;24.18;61.26;100648.75;7391668;19;1604;-73
2023/07/17 15:06:58;;;;;;;;;;;;;;;24.25;60.49;100634.56;7390408;19;1265;-65
2023/07/17 15:09:26;;;;;;;;;;;;;;;24.19;60.65;100655.88;7386416;19;1455;-65